To NAV CANADA Home Page Login to a new session Search on AWWS site Disclaimer Vers la page française équivalente Tips FAQ What's new on the site To the Forecasts and Observations / NOTAM section To "File a Flight Plan" website Publications and other links Update of the User's profile FIC Telephone Numbers My Weather Data Folder Route Weather Data Regional Weather Data Local Weather Data To the Forecasts and Observations / NOTAM section
Request Generated 07/10/2020 at 12:58:44 UTC . Weather information available at that time is displayed.


Go to a specific product

Save this request - Inactive

METAR/TAF

CALGARY/YYC CALGARY INTL/AB    

METAR CYYC 101200Z 35008KT 20SM FEW077 BKN140 11/07 A2995 RMK AC2AC5 SLP144 DENSITY ALT 4000FT=
METAR CYYC 101100Z 34009KT 15SM FEW083 BKN140 12/07 A2993 RMK AC2AC3 SLP136 DENSITY ALT 4200FT=
METAR CYYC 101000Z 34007KT 15SM SCT130 SCT240 13/07 A2990 RMK AC3CI1 CI TR SLP124 DENSITY ALT 4300FT=

TAF CYYC 101138Z 1012/1112 32008KT P6SM SCT080 BKN200
FM101500 32006KT P6SM FEW060
BECMG 1016/1018 20008KT
FM102200 28010KT P6SM FEW080
FM110400 28008KT P6SM SKC
RMK NXT FCST BY 101500Z=

CALGARY/SPRINGBANK/AB    (show WxCam)

METAR CYBW 101200Z AUTO 31006KT 9SM FEW060 BKN075 09/07 A2997 RMK SLP152 DENSITY ALT 4100FT=
METAR CYBW 101100Z AUTO 31004KT 9SM CLR 09/07 A2995 RMK SLP146 DENSITY ALT 4100FT=
METAR CYBW 101000Z AUTO 32008KT 9SM BKN140 OVC160 11/08 A2992 RMK SLP131 DENSITY ALT 4300FT=

TAF CYBW 101138Z 1012/1024 32008KT P6SM SCT080 BKN200
FM101500 32006KT P6SM FEW060
BECMG 1016/1018 20008KT
FM102200 28010KT P6SM FEW080
RMK FCST BASED ON AUTO OBS. NXT FCST BY 101800Z=


GRAPHICAL FA CLOUDS & WEATHER FORECASTS
To the Product Selector
Graphical FA gfacn32      

GRAPHICAL FA ICING, TURBULENCE & FREEZING LEVEL FORECASTS
To the Product Selector
Graphical FA gfacn32      

Your time UTC time
Weather data provided by Environment Canada and NAV CANADA